Time;durP1;ratioP1;P1;durP2;ratioP2;P2;SDS_P1;SDS_P2;PMS_P1;PMS_P2;Temp;Humidity;BMP_temperature;BMP_pressure;BME280_temperature;BME280_humidity;BME280_pressure;Samples;Min_cycle;Max_cycle;Signal;HPM_P1;HPM_P2
2022/10/03 00:02:34;;;;;;;1.13;1.13;;;16.20;83.20;16.20;97054.00;;;;5051762;28;20251;-83
2022/10/03 00:05:46;;;;;;;1.37;1.27;;;16.10;82.80;16.20;97060.00;;;;5042994;28;20231;-83
2022/10/03 00:08:29;;;;;;;2.17;1.57;;;16.10;82.90;16.20;97059.00;;;;5044238;28;20261;-83
2022/10/03 00:11:07;;;;;;;1.70;1.50;;;16.00;83.00;16.20;97067.00;;;;5056392;28;20303;-83
2022/10/03 00:13:49;;;;;;;1.33;1.23;;;16.00;82.90;16.10;97070.00;;;;5064301;28;20211;-83
2022/10/03 00:16:28;;;;;;;1.60;1.50;;;16.00;82.90;16.10;97072.00;;;;5050658;28;20738;-83
2022/10/03 00:19:11;;;;;;;1.37;1.27;;;16.00;83.10;16.10;97069.00;;;;5062825;28;20195;-83
2022/10/03 00:21:54;;;;;;;1.30;1.30;;;15.90;83.10;16.10;97069.00;;;;5064835;28;20756;-84
2022/10/03 00:24:48;;;;;;;1.70;1.60;;;15.90;83.10;16.00;97076.00;;;;5070964;28;20271;-84
2022/10/03 00:27:35;;;;;;;2.47;1.60;;;15.90;83.00;16.00;97074.00;;;;5070029;28;20207;-84
2022/10/03 00:30:18;;;;;;;1.87;1.77;;;15.80;82.90;16.00;97079.00;;;;5071576;28;20283;-84
2022/10/03 00:33:40;;;;;;;;;;;;;;;;;;;;;
2022/10/03 00:36:28;;;;;;;2.03;1.80;;;15.80;83.80;15.90;97087.00;;;;5065627;28;20184;-84
2022/10/03 00:39:28;;;;;;;1.87;1.77;;;15.80;83.20;15.90;97089.00;;;;5054981;28;20266;-84
2022/10/03 00:42:38;;;;;;;1.80;1.70;;;15.70;83.30;15.80;97096.00;;;;5051512;28;20228;-84
2022/10/03 00:45:59;;;;;;;1.90;1.80;;;15.70;83.30;15.80;97095.00;;;;5054237;28;20246;-84
2022/10/03 00:49:19;;;;;;;2.00;1.80;;;15.70;83.20;15.80;97099.00;;;;5033794;28;20611;-84
2022/10/03 00:52:17;;;;;;;1.60;1.50;;;15.70;83.10;15.70;97094.00;;;;5073818;28;20266;-84
2022/10/03 00:55:06;;;;;;;2.57;2.37;;;15.60;83.10;15.70;97093.00;;;;5070954;28;20238;-83
2022/10/03 00:58:14;;;;;;;2.90;1.97;;;15.60;83.10;15.70;97093.00;;;;5064043;28;20232;-83
2022/10/03 01:00:49;;;;;;;2.17;1.83;;;15.50;83.20;15.60;97100.00;;;;5057738;28;20215;-84
2022/10/03 01:03:59;;;;;;;2.07;1.73;;;15.50;83.20;15.60;97099.00;;;;5069843;28;20207;-84
2022/10/03 01:06:47;;;;;;;2.33;2.13;;;15.50;83.10;15.60;97108.00;;;;5054353;28;20204;-83
2022/10/03 01:09:46;;;;;;;1.60;1.50;;;15.50;83.30;15.60;97100.00;;;;5071855;28;20184;-83
2022/10/03 01:12:48;;;;;;;2.47;2.23;;;15.50;83.40;15.50;97100.00;;;;5063604;28;20220;-84
2022/10/03 01:15:28;;;;;;;2.87;2.00;;;15.50;83.40;15.50;97102.00;;;;5062862;28;20196;-83
2022/10/03 01:18:20;;;;;;;2.40;2.20;;;15.40;83.50;15.50;97098.00;;;;5052697;28;20704;-83
2022/10/03 01:21:18;;;;;;;2.67;2.47;;;15.40;83.40;15.50;97091.00;;;;5055696;28;20294;-83
2022/10/03 01:24:36;;;;;;;2.67;2.47;;;15.30;83.30;15.50;97096.00;;;;5053820;28;20200;-84
2022/10/03 01:27:10;;;;;;;3.40;2.50;;;15.40;83.50;15.50;97088.00;;;;5056339;28;20199;-84
2022/10/03 01:32:59;;;;;;;2.30;2.10;;;15.30;83.20;15.40;97102.00;;;;5066964;28;20273;-84
2022/10/03 01:35:48;;;;;;;2.30;2.10;;;15.30;83.30;15.40;97097.00;;;;5063369;28;20253;-83
2022/10/03 01:38:36;;;;;;;2.67;2.47;;;15.30;83.40;15.40;97097.00;;;;5073530;28;20578;-84
2022/10/03 01:41:44;;;;;;;2.97;2.57;;;15.30;83.40;15.40;97116.00;;;;5071641;28;20224;-83
2022/10/03 01:44:27;;;;;;;2.40;2.20;;;15.30;83.40;15.40;97117.00;;;;5071375;28;20657;-83
2022/10/03 01:47:26;;;;;;;3.70;2.93;;;15.20;83.40;15.30;97118.00;;;;5053358;28;20255;-84
2022/10/03 01:50:05;;;;;;;3.10;2.90;;;15.20;83.30;15.40;97127.00;;;;5061052;28;20203;-83
2022/10/03 01:52:47;;;;;;;3.13;2.93;;;15.20;83.40;15.40;97126.00;;;;5073732;28;20266;-83
2022/10/03 01:55:30;;;;;;;2.73;2.53;;;15.20;83.50;15.40;97123.00;;;;5071354;28;20196;-83
2022/10/03 01:58:04;;;;;;;3.47;3.20;;;15.20;83.50;15.40;97127.00;;;;5071893;28;20200;-84
2022/10/03 02:00:45;;;;;;;2.80;2.60;;;15.20;83.50;15.40;97139.00;;;;5072349;28;20725;-84
2022/10/03 02:03:27;;;;;;;2.90;2.70;;;15.20;83.60;15.40;97140.00;;;;5068063;28;20617;-84
2022/10/03 02:06:07;;;;;;;2.93;2.63;;;15.20;83.80;15.40;97143.00;;;;5069140;28;20195;-83
2022/10/03 02:08:51;;;;;;;2.93;2.73;;;15.20;83.70;15.40;97149.00;;;;5064357;28;20197;-83
2022/10/03 02:11:34;;;;;;;3.27;2.97;;;15.20;83.70;15.40;97158.00;;;;5053745;28;20224;-84
2022/10/03 02:14:22;;;;;;;2.90;2.63;;;15.20;83.80;15.40;97145.00;;;;5053210;28;20224;-84
2022/10/03 02:17:02;;;;;;;4.27;3.10;;;15.20;83.80;15.40;97153.00;;;;5052970;28;20230;-83
2022/10/03 02:19:42;;;;;;;3.33;2.73;;;15.20;83.80;15.50;97143.00;;;;5052474;28;20188;-83
2022/10/03 02:22:16;;;;;;;4.43;2.93;;;15.20;83.90;15.50;97148.00;;;;5052842;28;20224;-83
2022/10/03 02:25:03;;;;;;;2.77;2.57;;;15.30;84.10;15.50;97147.00;;;;5052925;28;20575;-83
2022/10/03 02:28:13;;;;;;;2.87;2.67;;;15.30;84.00;15.50;97150.00;;;;5051756;28;20199;-84
2022/10/03 02:31:01;;;;;;;3.13;2.53;;;15.30;83.90;15.50;97151.00;;;;5059460;28;20214;-84
2022/10/03 02:34:17;;;;;;;2.70;2.50;;;15.30;83.90;15.50;97150.00;;;;5073011;28;20200;-84
2022/10/03 02:37:36;;;;;;;2.90;2.70;;;15.30;83.90;15.50;97147.00;;;;5073644;28;20287;-84
2022/10/03 02:40:56;;;;;;;2.80;2.40;;;15.30;83.90;15.50;97152.00;;;;5058265;28;20196;-84
2022/10/03 02:44:22;;;;;;;3.73;2.50;;;15.40;83.70;15.50;97144.00;;;;4989459;28;20303;-83
2022/10/03 02:48:02;;;;;;;2.77;2.40;;;15.30;83.40;15.50;97137.00;;;;4971743;28;20210;-84
2022/10/03 02:51:04;;;;;;;2.97;2.77;;;15.30;83.20;15.40;97138.00;;;;4988015;28;20231;-84
2022/10/03 02:54:23;;;;;;;2.80;2.60;;;15.30;83.30;15.40;97145.00;;;;5069531;28;20230;-84
2022/10/03 02:57:54;;;;;;;2.80;2.60;;;15.30;83.20;15.40;97158.00;;;;5064017;28;20580;-83
2022/10/03 03:00:44;;;;;;;2.47;2.27;;;15.30;83.20;15.40;97162.00;;;;5018111;28;20231;-84
2022/10/03 03:03:56;;;;;;;2.90;2.43;;;15.30;83.10;15.40;97159.00;;;;5052912;28;20184;-84
2022/10/03 03:06:57;;;;;;;3.93;2.67;;;15.30;83.00;15.40;97169.00;;;;5059504;28;20279;-84
2022/10/03 03:10:28;;;;;;;2.67;2.47;;;15.20;83.10;15.40;97164.00;;;;5061838;28;20578;-84
2022/10/03 03:13:35;;;;;;;2.73;2.53;;;15.30;83.20;15.40;97168.00;;;;5054466;28;20643;-84
2022/10/03 03:16:56;;;;;;;2.73;2.53;;;15.20;83.20;15.40;97167.00;;;;5062246;28;20579;-83
2022/10/03 03:19:59;;;;;;;4.40;3.07;;;15.20;83.20;15.40;97176.00;;;;5028153;28;20288;-83
2022/10/03 03:22:49;;;;;;;2.83;2.63;;;15.20;83.30;15.40;97171.00;;;;5063421;28;20216;-84
2022/10/03 03:25:56;;;;;;;3.50;2.70;;;15.20;83.30;15.40;97172.00;;;;5070627;28;20184;-83
2022/10/03 03:28:41;;;;;;;2.50;2.37;;;15.20;83.20;15.40;97178.00;;;;5068527;28;20184;-83
2022/10/03 03:31:14;;;;;;;3.20;2.90;;;15.20;83.30;15.40;97183.00;;;;5059932;28;20662;-83
2022/10/03 03:34:03;;;;;;;2.97;2.77;;;15.20;83.40;15.40;97183.00;;;;5036509;28;20201;-83
2022/10/03 03:36:41;;;;;;;4.30;2.93;;;15.20;83.30;15.40;97180.00;;;;5071849;28;20207;-84
2022/10/03 03:39:38;;;;;;;4.07;3.13;;;15.20;83.30;15.40;97189.00;;;;5062925;28;20200;-83
2022/10/03 03:42:35;;;;;;;2.97;2.77;;;15.20;83.40;15.40;97190.00;;;;5051227;28;20224;-83
2022/10/03 03:45:27;;;;;;;4.17;3.20;;;15.20;83.30;15.40;97188.00;;;;5055350;28;20193;-84
2022/10/03 03:48:20;;;;;;;3.30;3.00;;;15.20;83.20;15.40;97189.00;;;;5057361;28;20212;-84
2022/10/03 03:51:09;;;;;;;3.50;3.20;;;15.20;83.20;15.40;97188.00;;;;5061083;28;20636;-84
2022/10/03 03:54:28;;;;;;;3.57;3.27;;;15.20;83.30;15.40;97194.00;;;;5070300;28;20196;-84
2022/10/03 03:57:32;;;;;;;3.67;3.37;;;15.20;83.40;15.40;97204.00;;;;5029806;28;20227;-84
2022/10/03 04:00:14;;;;;;;3.33;3.03;;;15.20;83.00;15.30;97203.00;;;;5070585;28;20257;-84
2022/10/03 04:03:14;;;;;;;3.40;3.10;;;15.20;82.90;15.30;97208.00;;;;5054589;28;20236;-84
2022/10/03 04:06:12;;;;;;;3.30;3.10;;;15.20;82.60;15.30;97202.00;;;;5078832;28;20226;-83
2022/10/03 04:09:07;;;;;;;2.90;2.70;;;15.20;82.80;15.30;97208.00;;;;5072435;28;20274;-83
2022/10/03 04:11:55;;;;;;;3.07;2.87;;;15.10;82.80;15.30;97216.00;;;;5076668;28;20223;-83
2022/10/03 04:15:15;;;;;;;3.13;2.93;;;15.10;83.00;15.20;97216.00;;;;5068271;28;20211;-83
2022/10/03 04:21:36;;;;;;;3.00;2.73;;;15.10;82.90;15.20;97215.00;;;;5073618;28;20257;-83
2022/10/03 04:24:47;;;;;;;3.87;3.30;;;15.10;82.90;15.20;97217.00;;;;5071780;28;20698;-82
2022/10/03 04:27:55;;;;;;;4.07;3.13;;;15.10;83.00;15.20;97213.00;;;;5062163;28;20266;-83
2022/10/03 04:31:01;;;;;;;3.63;3.17;;;15.10;83.10;15.30;97213.00;;;;5069267;28;20195;-82
2022/10/03 04:33:50;;;;;;;3.30;3.00;;;15.10;83.20;15.20;97209.00;;;;5070612;28;20201;-83
2022/10/03 04:37:04;;;;;;;3.47;3.20;;;15.10;83.10;15.20;97215.00;;;;5060508;28;20663;-83
2022/10/03 04:40:10;;;;;;;3.00;2.77;;;15.10;82.90;15.20;97215.00;;;;5054950;28;20557;-83
2022/10/03 04:43:04;;;;;;;3.87;3.40;;;15.10;83.00;15.20;97215.00;;;;5064925;28;20229;-83
2022/10/03 04:46:13;;;;;;;3.00;2.80;;;15.10;82.90;15.20;97216.00;;;;5056042;28;20177;-83
2022/10/03 04:49:00;;;;;;;3.30;3.10;;;15.10;82.80;15.20;97212.00;;;;5056231;28;20185;-82
2022/10/03 04:51:54;;;;;;;3.87;3.40;;;15.00;83.40;15.20;97217.00;;;;5055453;28;20220;-83
2022/10/03 04:54:49;;;;;;;3.53;3.23;;;15.00;82.50;15.10;97208.00;;;;5063196;28;20632;-82
2022/10/03 04:57:42;;;;;;;3.67;3.30;;;15.00;82.40;15.10;97208.00;;;;5071899;28;20231;-83
2022/10/03 05:00:28;;;;;;;4.20;2.70;;;15.00;82.40;15.10;97213.00;;;;5074468;28;20203;-83
2022/10/03 05:03:08;;;;;;;3.50;3.20;;;15.00;82.50;15.10;97214.00;;;;5076261;28;20220;-82
2022/10/03 05:05:50;;;;;;;3.70;3.40;;;14.90;82.30;15.10;97213.00;;;;5075747;28;20840;-83
2022/10/03 05:08:38;;;;;;;3.93;3.63;;;14.90;82.20;15.10;97215.00;;;;5075453;28;20625;-82
2022/10/03 05:11:22;;;;;;;5.33;3.67;;;14.90;82.10;15.00;97217.00;;;;5075298;28;20259;-82
2022/10/03 05:14:04;;;;;;;4.80;3.83;;;14.90;82.20;15.00;97215.00;;;;5075429;28;20601;-82
2022/10/03 05:16:48;;;;;;;4.23;3.73;;;14.80;83.00;15.00;97227.00;;;;5069440;28;20201;-82
2022/10/03 05:21:55;;;;;;;3.73;3.47;;;14.80;82.70;15.00;97225.00;;;;5067578;28;20223;-82
2022/10/03 05:24:34;;;;;;;3.87;3.57;;;14.80;83.50;15.00;97227.00;;;;5045437;28;20773;-83
2022/10/03 05:27:15;;;;;;;4.10;3.80;;;14.80;82.80;15.10;97232.00;;;;5035843;28;20244;-82
2022/10/03 05:29:57;;;;;;;3.90;3.63;;;14.90;82.90;15.10;97229.00;;;;5035693;28;20217;-83
2022/10/03 05:32:37;;;;;;;5.20;4.80;;;14.90;83.10;15.10;97234.00;;;;5035294;28;20476;-84
2022/10/03 05:35:29;;;;;;;4.70;4.33;;;14.80;83.50;15.10;97236.00;;;;5045106;28;20196;-84
2022/10/03 05:38:39;;;;;;;3.73;3.43;;;14.80;83.40;15.20;97236.00;;;;5042704;28;20260;-84
2022/10/03 05:41:21;;;;;;;4.07;3.77;;;14.90;84.00;15.20;97240.00;;;;5038495;28;20266;-85
2022/10/03 05:44:01;;;;;;;4.30;3.90;;;14.90;83.50;15.30;97242.00;;;;5035587;28;20220;-85
2022/10/03 05:47:02;;;;;;;5.63;4.07;;;14.90;83.60;15.30;97238.00;;;;5035967;28;20216;-85
2022/10/03 05:49:57;;;;;;;4.07;3.67;;;15.00;84.40;15.40;97236.00;;;;5036897;28;20288;-84
2022/10/03 05:53:04;;;;;;;4.10;3.80;;;15.00;83.80;15.40;97240.00;;;;5038323;28;20755;-85
2022/10/03 05:55:59;;;;;;;4.33;3.93;;;15.10;83.80;15.40;97245.00;;;;5054183;28;20699;-84
2022/10/03 05:59:08;;;;;;;4.47;4.07;;;15.10;83.80;15.50;97245.00;;;;5044710;28;20614;-84
2022/10/03 06:02:20;;;;;;;4.60;4.20;;;15.10;83.90;15.50;97265.00;;;;5057949;28;20227;-84
2022/10/03 06:05:11;;;;;;;4.93;3.17;;;15.10;83.90;15.50;97265.00;;;;5037338;28;20212;-83
2022/10/03 06:08:16;;;;;;;4.07;3.33;;;15.20;84.70;15.60;97274.00;;;;5053215;28;20250;-83
2022/10/03 06:11:00;;;;;;;5.87;4.93;;;15.20;84.10;15.60;97276.00;;;;5051273;28;20197;-83
2022/10/03 06:13:59;;;;;;;7.23;6.53;;;15.20;84.20;15.60;97282.00;;;;5053849;28;20287;-80
2022/10/03 06:16:52;;;;;;;5.90;5.43;;;15.30;84.40;15.70;97292.00;;;;5054819;28;20235;-80
2022/10/03 06:19:46;;;;;;;5.40;5.00;;;15.30;84.30;15.70;97287.00;;;;5036456;28;20213;-80
2022/10/03 06:23:04;;;;;;;5.07;4.57;;;15.30;84.30;15.70;97283.00;;;;5036616;28;20335;-80
2022/10/03 06:26:30;;;;;;;5.13;4.47;;;15.40;84.40;15.80;97292.00;;;;5068505;28;20219;-80
2022/10/03 06:30:10;;;;;;;4.07;3.57;;;15.40;84.30;15.80;97299.00;;;;5036193;28;20688;-80
2022/10/03 06:33:49;;;;;;;4.00;3.60;;;15.50;84.10;15.80;97307.00;;;;5029561;28;20327;-80
2022/10/03 06:36:59;;;;;;;4.60;4.20;;;15.50;84.00;15.80;97300.00;;;;5042142;28;20675;-80
2022/10/03 06:40:26;;;;;;;4.27;3.97;;;15.50;84.20;15.90;97307.00;;;;5051165;28;20303;-80
2022/10/03 06:43:44;;;;;;;4.07;3.77;;;15.60;84.20;15.90;97314.00;;;;5063924;28;20255;-80
2022/10/03 06:47:10;;;;;;;4.47;4.07;;;15.60;84.10;15.90;97318.00;;;;5019960;28;20201;-80
2022/10/03 06:50:22;;;;;;;4.33;3.93;;;15.60;83.90;16.00;97312.00;;;;5009573;28;20304;-80
2022/10/03 06:53:31;;;;;;;4.47;4.03;;;15.70;83.90;16.00;97310.00;;;;5042701;28;20743;-80
2022/10/03 06:56:41;;;;;;;4.27;3.67;;;15.70;83.80;16.00;97303.00;;;;5009703;28;20232;-80
2022/10/03 06:59:51;;;;;;;4.37;3.83;;;15.70;83.80;16.00;97317.00;;;;5064810;28;20272;-80
2022/10/03 07:03:06;;;;;;;4.87;4.40;;;15.70;83.90;16.10;97320.00;;;;5060330;28;20224;-80
2022/10/03 07:06:22;;;;;;;5.70;4.27;;;15.80;84.00;16.10;97325.00;;;;5037591;28;20204;-80
2022/10/03 07:09:40;;;;;;;5.60;4.13;;;15.80;84.00;16.20;97321.00;;;;5042077;28;20646;-80
2022/10/03 07:13:11;;;;;;;6.40;3.80;;;15.90;84.00;16.20;97333.00;;;;5004764;28;20251;-80
2022/10/03 07:16:42;;;;;;;3.70;3.40;;;15.90;83.70;16.20;97325.00;;;;5039106;28;20636;-80
2022/10/03 07:19:44;;;;;;;3.53;3.23;;;15.90;83.60;16.30;97323.00;;;;5039061;28;20211;-80
2022/10/03 07:23:17;;;;;;;3.70;3.40;;;15.90;83.70;16.30;97334.00;;;;5055427;28;20224;-80
2022/10/03 07:26:26;;;;;;;3.80;3.50;;;16.00;83.40;16.30;97334.00;;;;4989384;28;20200;-80
2022/10/03 07:29:19;;;;;;;3.80;3.50;;;16.00;83.50;16.30;97337.00;;;;5036548;28;20284;-80
2022/10/03 07:32:25;;;;;;;4.13;3.73;;;16.00;83.40;16.40;97347.00;;;;5050566;28;20635;-80
2022/10/03 07:39:00;;;;;;;4.07;3.67;;;16.10;82.50;16.30;97340.00;;;;5036630;28;20239;-80
2022/10/03 07:41:51;;;;;;;4.50;3.70;;;16.10;83.00;16.40;97338.00;;;;5040647;28;20239;-81
2022/10/03 07:45:17;;;;;;;4.57;3.50;;;16.10;83.40;16.50;97346.00;;;;5051613;28;20204;-81
2022/10/03 07:48:31;;;;;;;4.53;3.57;;;16.10;83.40;16.60;97353.00;;;;5041210;28;20197;-80
2022/10/03 07:51:14;;;;;;;3.67;3.37;;;16.20;83.60;16.60;97351.00;;;;5057655;28;20248;-80
2022/10/03 07:54:27;;;;;;;3.77;3.47;;;16.20;83.70;16.70;97344.00;;;;5056916;28;20197;-81
2022/10/03 07:57:28;;;;;;;3.97;3.20;;;16.30;83.60;16.70;97356.00;;;;5035219;28;20196;-81
2022/10/03 08:00:23;;;;;;;3.27;3.07;;;16.30;83.50;16.80;97345.00;;;;5053702;28;20234;-81
2022/10/03 08:03:45;;;;;;;4.30;3.27;;;16.40;84.00;16.80;97352.00;;;;5042751;28;20278;-81
2022/10/03 08:06:23;;;;;;;3.97;3.30;;;16.40;83.00;16.80;97349.00;;;;5012936;28;20656;-81
2022/10/03 08:09:53;;;;;;;3.67;3.27;;;16.40;83.30;16.90;97356.00;;;;5037457;28;20265;-81
2022/10/03 08:12:56;;;;;;;5.17;3.00;;;16.50;82.90;16.90;97355.00;;;;5009694;28;20581;-81
2022/10/03 08:15:41;;;;;;;3.53;2.73;;;16.50;82.90;17.00;97365.00;;;;5056471;28;20199;-81
2022/10/03 08:18:53;;;;;;;3.83;3.00;;;16.60;82.70;17.00;97371.00;;;;5074045;28;20197;-81
2022/10/03 08:21:43;;;;;;;6.13;3.13;;;16.60;82.20;17.00;97371.00;;;;5073263;28;20912;-81
2022/10/03 08:24:34;;;;;;;4.07;3.33;;;16.60;82.10;17.00;97374.00;;;;5042600;28;20789;-81
2022/10/03 08:27:50;;;;;;;5.47;3.00;;;16.70;82.20;17.10;97376.00;;;;5052989;28;20189;-81
2022/10/03 08:30:24;;;;;;;4.63;3.07;;;16.70;81.60;17.10;97373.00;;;;5038582;28;20197;-82
2022/10/03 08:33:52;;;;;;;3.97;3.17;;;16.70;81.80;17.10;97375.00;;;;5048250;28;20280;-81
2022/10/03 08:37:27;;;;;;;5.63;3.03;;;16.70;81.60;17.10;97388.00;;;;5038365;28;20209;-81
2022/10/03 08:41:00;;;;;;;6.13;3.00;;;16.80;81.20;17.20;97385.00;;;;5053836;28;20684;-81
2022/10/03 08:44:17;;;;;;;3.67;2.63;;;16.80;81.30;17.20;97387.00;;;;5035528;28;20217;-81
2022/10/03 08:47:38;;;;;;;3.63;2.70;;;16.80;81.10;17.20;97394.00;;;;5051664;28;20201;-81
2022/10/03 08:50:57;;;;;;;2.90;2.70;;;16.90;81.10;17.20;97386.00;;;;5056400;28;20641;-81
2022/10/03 08:54:04;;;;;;;2.63;2.27;;;16.90;80.60;17.20;97394.00;;;;5038800;28;20182;-82
2022/10/03 08:57:11;;;;;;;3.17;2.43;;;16.90;80.70;17.30;97398.00;;;;5037884;28;20319;-81
2022/10/03 09:00:16;;;;;;;3.50;2.67;;;16.90;80.80;17.30;97396.00;;;;5034350;28;20208;-81
2022/10/03 09:03:52;;;;;;;3.30;2.40;;;16.90;80.30;17.30;97397.00;;;;5044763;28;20266;-81
2022/10/03 09:07:07;;;;;;;2.80;2.50;;;16.90;81.00;17.30;97388.00;;;;5051489;28;20203;-81
2022/10/03 09:10:23;;;;;;;3.27;2.87;;;17.00;80.50;17.30;97392.00;;;;5014467;28;20209;-81
2022/10/03 09:13:49;;;;;;;2.57;2.23;;;17.00;80.30;17.30;97393.00;;;;5020473;28;20230;-81
2022/10/03 09:16:50;;;;;;;3.00;2.50;;;17.00;80.10;17.30;97389.00;;;;5060860;28;20199;-81
2022/10/03 09:20:06;;;;;;;3.47;2.13;;;17.00;80.00;17.40;97392.00;;;;5051123;28;20207;-81
2022/10/03 09:23:15;;;;;;;2.37;2.17;;;17.00;80.40;17.50;97385.00;;;;5025320;28;20255;-81
2022/10/03 09:26:20;;;;;;;4.77;2.50;;;17.10;80.80;17.70;97384.00;;;;5055976;28;20189;-81
2022/10/03 09:29:37;;;;;;;3.00;2.40;;;17.20;81.70;17.80;97391.00;;;;5056482;28;20198;-81
2022/10/03 09:33:02;;;;;;;2.60;2.30;;;17.20;81.70;18.00;97400.00;;;;5048489;28;20244;-81
2022/10/03 09:36:08;;;;;;;2.93;2.07;;;17.30;81.40;18.00;97395.00;;;;4997731;28;20203;-81
2022/10/03 09:39:14;;;;;;;3.27;2.03;;;17.50;80.50;18.10;97393.00;;;;5057760;28;20200;-82
2022/10/03 09:42:42;;;;;;;3.77;2.20;;;17.50;80.50;18.10;97392.00;;;;5055978;28;20224;-81
2022/10/03 09:45:46;;;;;;;3.30;2.20;;;17.60;80.60;18.10;97396.00;;;;5036080;28;20200;-81
2022/10/03 09:48:49;;;;;;;3.63;2.73;;;17.60;80.20;18.10;97391.00;;;;5057232;28;20664;-81
2022/10/03 09:51:57;;;;;;;5.50;2.80;;;17.60;80.40;18.10;97390.00;;;;5059307;28;20239;-81
2022/10/03 09:55:00;;;;;;;2.43;1.87;;;17.70;79.80;18.10;97397.00;;;;5052018;28;20204;-81
2022/10/03 09:58:15;;;;;;;4.57;2.40;;;17.70;80.20;18.10;97389.00;;;;5040412;28;20685;-81
2022/10/03 10:01:22;;;;;;;3.13;2.30;;;17.70;79.70;18.10;97388.00;;;;5058463;28;20221;-81
2022/10/03 10:04:54;;;;;;;2.90;1.97;;;17.70;79.90;18.10;97390.00;;;;5060032;28;20296;-81
2022/10/03 10:08:20;;;;;;;4.90;2.00;;;17.70;79.20;18.20;97386.00;;;;4992362;28;20198;-81
2022/10/03 10:11:13;;;;;;;2.80;2.27;;;17.70;79.30;18.20;97380.00;;;;5014352;28;20192;-81
2022/10/03 10:14:23;;;;;;;3.73;2.23;;;17.80;79.60;18.20;97389.00;;;;5041308;28;20206;-81
2022/10/03 10:17:48;;;;;;;4.40;2.13;;;17.80;79.60;18.30;97379.00;;;;5041487;28;20228;-81
2022/10/03 10:21:07;;;;;;;2.17;1.70;;;17.90;79.60;18.30;97386.00;;;;5041049;28;20205;-81
2022/10/03 10:24:04;;;;;;;3.47;2.00;;;17.90;79.60;18.40;97385.00;;;;4986806;28;20665;-81
2022/10/03 10:27:29;;;;;;;5.33;2.00;;;18.00;79.10;18.60;97381.00;;;;5060509;28;20201;-81
2022/10/03 10:30:23;;;;;;;2.20;1.50;;;18.10;80.10;18.80;97386.00;;;;5041347;28;20202;-81
2022/10/03 10:33:44;;;;;;;3.67;2.13;;;18.20;80.70;19.00;97389.00;;;;5052731;28;20220;-82
2022/10/03 10:37:06;;;;;;;2.80;1.90;;;18.40;79.70;19.10;97388.00;;;;5039275;28;20224;-81
2022/10/03 10:40:34;;;;;;;2.10;1.73;;;18.60;79.60;19.10;97389.00;;;;5043033;28;20570;-81
2022/10/03 10:44:04;;;;;;;5.97;1.97;;;18.70;78.00;19.10;97391.00;;;;5066384;28;20328;-81
2022/10/03 10:47:30;;;;;;;3.83;2.00;;;18.70;76.90;19.00;97390.00;;;;5028989;28;20550;-81
2022/10/03 10:51:05;;;;;;;3.87;1.93;;;18.70;76.30;18.90;97384.00;;;;5040448;28;20194;-81
2022/10/03 10:54:29;;;;;;;3.80;1.57;;;18.70;75.20;18.90;97388.00;;;;5040032;28;20212;-81
2022/10/03 10:57:32;;;;;;;2.67;1.80;;;18.60;75.70;18.80;97391.00;;;;5010718;28;20197;-81
2022/10/03 11:00:45;;;;;;;3.70;1.30;;;18.60;75.20;18.70;97382.00;;;;5047931;28;20250;-81
2022/10/03 11:04:29;;;;;;;4.50;2.00;;;18.50;75.50;18.70;97388.00;;;;5048022;28;20206;-81
2022/10/03 11:07:47;;;;;;;3.13;1.90;;;18.50;75.10;18.60;97378.00;;;;5042367;28;20631;-81
2022/10/03 11:10:35;;;;;;;2.27;1.30;;;18.40;75.10;18.60;97378.00;;;;5030315;28;20201;-81
2022/10/03 11:13:54;;;;;;;1.67;1.30;;;18.30;75.00;18.60;97384.00;;;;5050235;28;20217;-81
2022/10/03 11:17:10;;;;;;;3.67;1.40;;;18.30;75.80;18.60;97379.00;;;;5025037;28;20232;-81
2022/10/03 11:20:57;;;;;;;2.13;1.73;;;18.30;75.10;18.70;97371.00;;;;5120241;22;20244;-87
2022/10/03 11:24:27;;;;;;;1.60;1.50;;;18.30;76.10;18.70;97382.00;;;;4947493;28;20247;-87
2022/10/03 11:27:55;;;;;;;5.40;1.63;;;18.30;75.00;18.70;97381.00;;;;5021633;28;20224;-85
2022/10/03 11:31:11;;;;;;;4.30;1.50;;;18.30;75.30;18.70;97381.00;;;;5019929;28;20284;-85
2022/10/03 11:34:44;;;;;;;1.47;1.17;;;18.30;75.80;18.80;97376.00;;;;5022844;28;20244;-85
2022/10/03 11:37:31;;;;;;;2.43;1.40;;;18.30;75.90;18.70;97376.00;;;;5012872;28;20661;-87
2022/10/03 11:40:27;;;;;;;2.47;1.80;;;18.30;75.80;18.70;97381.00;;;;5026934;28;20199;-85
2022/10/03 11:43:24;;;;;;;4.53;1.47;;;18.30;76.00;18.70;97380.00;;;;5029272;28;20641;-85
2022/10/03 11:46:01;;;;;;;3.60;1.40;;;18.30;76.00;18.70;97382.00;;;;5027847;28;20225;-85
2022/10/03 11:48:40;;;;;;;4.40;1.40;;;18.30;75.50;18.60;97387.00;;;;5029353;28;20192;-85
2022/10/03 11:51:24;;;;;;;2.93;1.47;;;18.30;74.40;18.60;97377.00;;;;5027709;28;20239;-85
2022/10/03 11:54:03;;;;;;;2.30;1.60;;;18.30;74.40;18.50;97381.00;;;;5017102;28;20217;-84
2022/10/03 11:56:39;;;;;;;3.60;1.30;;;18.20;74.80;18.50;97378.00;;;;5027095;28;20200;-85
2022/10/03 11:59:43;;;;;;;3.50;1.50;;;18.20;74.80;18.40;97370.00;;;;5030694;28;20189;-85
2022/10/03 12:02:41;;;;;;;3.43;2.03;;;18.10;73.20;18.40;97373.00;;;;5030684;28;20622;-85
2022/10/03 12:05:23;;;;;;;3.17;1.37;;;18.10;73.80;18.40;97370.00;;;;5023878;28;20301;-87
2022/10/03 12:11:13;;;;;;;1.70;1.20;;;18.10;73.70;18.50;97364.00;;;;5017637;28;20213;-85
2022/10/03 12:14:07;;;;;;;5.33;1.43;;;18.10;74.00;18.50;97369.00;;;;5031883;28;20243;-86
2022/10/03 12:17:13;;;;;;;1.97;1.23;;;18.10;73.80;18.50;97356.00;;;;5028544;28;20193;-86
2022/10/03 12:20:03;;;;;;;1.43;1.20;;;18.10;73.80;18.50;97354.00;;;;5026687;28;20243;-88
2022/10/03 12:22:45;;;;;;;4.50;1.30;;;18.10;73.50;18.50;97355.00;;;;5029549;28;20224;-87
2022/10/03 12:25:23;;;;;;;6.70;1.60;;;18.10;73.70;18.60;97357.00;;;;5029118;28;20208;-85
2022/10/03 12:28:16;;;;;;;2.23;1.30;;;18.10;73.30;18.60;97355.00;;;;5032697;28;20251;-85
2022/10/03 12:30:54;;;;;;;2.50;1.30;;;18.20;71.90;18.60;97345.00;;;;5030263;28;20201;-85
2022/10/03 12:33:48;;;;;;;1.80;1.30;;;18.10;72.40;18.50;97345.00;;;;5031479;28;20204;-86
2022/10/03 12:36:23;;;;;;;2.57;1.37;;;18.10;72.10;18.50;97332.00;;;;5028044;28;20200;-86
2022/10/03 12:39:19;;;;;;;1.43;1.00;;;18.10;72.60;18.50;97339.00;;;;5030071;28;20628;-85
2022/10/03 12:42:13;;;;;;;3.30;0.90;;;18.10;71.80;18.50;97334.00;;;;5021936;28;20598;-85
2022/10/03 12:44:54;;;;;;;3.93;1.27;;;18.10;72.30;18.50;97327.00;;;;5026867;28;20233;-84
2022/10/03 12:47:38;;;;;;;1.47;0.97;;;18.10;72.70;18.50;97335.00;;;;5033814;28;20280;-84
2022/10/03 12:50:28;;;;;;;1.93;0.70;;;18.20;73.10;18.60;97331.00;;;;5030989;28;20211;-83
2022/10/03 12:53:24;;;;;;;1.40;1.00;;;18.20;72.50;18.70;97332.00;;;;5026626;28;20283;-83
2022/10/03 12:56:11;;;;;;;1.10;1.00;;;18.20;72.00;18.70;97332.00;;;;5018334;28;20321;-83
2022/10/03 12:59:17;;;;;;;1.87;1.03;;;18.30;71.00;18.70;97329.00;;;;5027550;28;20217;-86
2022/10/03 13:02:22;;;;;;;0.93;0.77;;;18.30;71.00;18.70;97341.00;;;;5025780;28;20225;-85
2022/10/03 13:05:38;;;;;;;3.37;1.00;;;18.30;70.10;18.60;97333.00;;;;5030076;28;20689;-85
2022/10/03 13:08:26;;;;;;;2.60;1.03;;;18.30;70.90;18.60;97337.00;;;;5027407;28;20280;-86
2022/10/03 13:11:05;;;;;;;0.90;0.80;;;18.30;70.70;18.60;97335.00;;;;5025207;28;20190;-85
2022/10/03 13:13:51;;;;;;;1.90;1.00;;;18.30;70.50;18.60;97336.00;;;;5030638;28;20235;-85
2022/10/03 13:16:27;;;;;;;1.27;1.10;;;18.30;69.60;18.60;97341.00;;;;5040404;28;20224;-83
2022/10/03 13:19:08;;;;;;;1.00;0.90;;;18.30;69.40;18.60;97327.00;;;;5038376;28;20284;-85
2022/10/03 13:22:02;;;;;;;1.87;0.87;;;18.30;69.40;18.60;97331.00;;;;5034443;28;20265;-85
2022/10/03 13:24:40;;;;;;;2.10;1.13;;;18.30;68.20;18.50;97331.00;;;;5036012;28;20307;-84
2022/10/03 13:27:34;;;;;;;1.67;0.70;;;18.30;67.70;18.50;97326.00;;;;5036703;28;20197;-83
2022/10/03 13:30:13;;;;;;;2.27;0.70;;;18.30;66.80;18.60;97327.00;;;;5029520;28;20205;-84
2022/10/03 13:32:46;;;;;;;1.67;0.80;;;18.30;67.80;18.50;97318.00;;;;5031120;28;20727;-85
2022/10/03 13:39:05;;;;;;;0.93;0.80;;;18.20;67.90;18.50;97327.00;;;;5026687;28;20732;-83
2022/10/03 13:41:59;;;;;;;0.87;0.67;;;18.30;68.60;18.50;97315.00;;;;5026106;28;20295;-83
2022/10/03 13:44:40;;;;;;;1.27;0.70;;;18.20;68.40;18.60;97311.00;;;;5030936;28;20221;-84